createdAt,value
2022-08-17T00:00:33.231Z,18.25
2022-08-17T00:03:11.310Z,18.23
2022-08-17T00:05:44.744Z,18.23
2022-08-17T00:08:13.210Z,18.20
2022-08-17T00:10:41.007Z,18.18
2022-08-17T00:13:12.858Z,18.17
2022-08-17T00:15:39.351Z,18.18
2022-08-17T00:18:53.795Z,18.18
2022-08-17T00:20:55.702Z,18.19
2022-08-17T00:23:22.669Z,18.14
2022-08-17T00:25:49.603Z,18.11
2022-08-17T00:28:17.274Z,18.06
2022-08-17T00:30:50.899Z,18.03
2022-08-17T00:33:25.087Z,18.02
2022-08-17T00:35:52.847Z,18.00
2022-08-17T00:38:20.168Z,17.99
2022-08-17T00:40:59.019Z,17.98
2022-08-17T00:43:31.368Z,17.96
2022-08-17T00:45:58.502Z,17.94
2022-08-17T00:48:30.223Z,17.93
2022-08-17T00:51:11.673Z,17.89
2022-08-17T00:53:44.230Z,17.87
2022-08-17T00:56:21.131Z,17.84
2022-08-17T00:58:52.000Z,17.79
2022-08-17T01:01:21.185Z,17.77
2022-08-17T01:03:51.536Z,17.77
2022-08-17T01:06:18.658Z,17.76
2022-08-17T01:08:45.811Z,17.74
2022-08-17T01:11:12.552Z,17.72
2022-08-17T01:13:42.588Z,17.74
2022-08-17T01:16:18.301Z,17.75
2022-08-17T01:18:48.157Z,17.74
2022-08-17T01:21:29.168Z,17.70
2022-08-17T01:23:56.497Z,17.67
2022-08-17T01:26:23.799Z,17.64
2022-08-17T01:28:53.549Z,17.63
2022-08-17T01:31:23.732Z,17.61
2022-08-17T01:33:50.424Z,17.58
2022-08-17T01:36:17.134Z,17.56
2022-08-17T01:38:43.821Z,17.56
2022-08-17T01:41:14.566Z,17.56
2022-08-17T01:43:47.106Z,17.56
2022-08-17T01:46:21.940Z,17.54
2022-08-17T01:48:48.953Z,17.53
2022-08-17T01:51:16.148Z,17.50
2022-08-17T01:53:48.735Z,17.49
2022-08-17T01:56:20.174Z,17.46
2022-08-17T01:58:47.762Z,17.44
2022-08-17T02:01:16.554Z,17.40
2022-08-17T02:03:56.156Z,17.37
2022-08-17T02:06:28.477Z,17.44
2022-08-17T02:09:01.745Z,17.40
2022-08-17T02:11:37.938Z,17.37
2022-08-17T02:14:08.269Z,17.37
2022-08-17T02:16:40.403Z,17.36
2022-08-17T02:19:10.285Z,17.35
2022-08-17T02:21:38.874Z,17.32
2022-08-17T02:24:08.417Z,17.34
2022-08-17T02:26:35.202Z,17.30
2022-08-17T02:29:02.088Z,17.26
2022-08-17T02:31:31.145Z,17.27
2022-08-17T02:34:04.574Z,17.22
2022-08-17T02:36:34.293Z,17.23
2022-08-17T02:39:03.622Z,17.19
2022-08-17T02:41:30.541Z,17.18
2022-08-17T02:43:57.289Z,17.20
2022-08-17T02:46:24.120Z,17.13
2022-08-17T02:48:50.844Z,17.19
2022-08-17T02:51:17.745Z,17.15
2022-08-17T02:53:44.533Z,17.11
2022-08-17T02:56:11.219Z,17.10
2022-08-17T02:58:38.065Z,17.10
2022-08-17T03:01:07.374Z,17.09
2022-08-17T03:03:34.930Z,17.06
2022-08-17T03:06:02.012Z,17.07
2022-08-17T03:08:29.749Z,17.06
2022-08-17T03:10:56.934Z,17.04
2022-08-17T03:13:23.662Z,17.03
2022-08-17T03:15:50.742Z,17.02
2022-08-17T03:18:25.302Z,17.01
2022-08-17T03:20:59.686Z,17.00
2022-08-17T03:23:27.910Z,16.99
2022-08-17T03:25:57.142Z,16.97
2022-08-17T03:28:24.488Z,16.92
2022-08-17T03:30:52.553Z,16.93
2022-08-17T03:33:20.213Z,16.94
2022-08-17T03:35:47.407Z,16.93
2022-08-17T03:38:17.143Z,16.90
2022-08-17T03:40:56.390Z,16.93
2022-08-17T03:43:27.682Z,16.92
2022-08-17T03:46:28.177Z,16.89
2022-08-17T03:49:19.252Z,16.88
2022-08-17T03:52:04.400Z,16.87
2022-08-17T03:54:49.846Z,16.82
2022-08-17T03:57:16.742Z,16.86
2022-08-17T03:59:45.001Z,16.85
2022-08-17T04:02:18.927Z,16.86
2022-08-17T04:04:45.751Z,16.85
2022-08-17T04:07:12.748Z,16.86
2022-08-17T04:09:42.108Z,16.89
2022-08-17T04:12:11.191Z,16.83
2022-08-17T04:15:02.974Z,16.87
2022-08-17T04:17:29.850Z,16.94
2022-08-17T04:19:57.019Z,16.97
2022-08-17T04:22:30.627Z,16.98
2022-08-17T04:25:03.773Z,17.07
2022-08-17T04:27:30.452Z,17.10
2022-08-17T04:29:58.631Z,17.14
2022-08-17T04:33:03.813Z,17.18
2022-08-17T04:35:12.094Z,17.18
2022-08-17T04:37:38.844Z,17.28
2022-08-17T04:40:27.129Z,17.35
2022-08-17T04:43:06.034Z,17.44
2022-08-17T04:45:33.135Z,17.49
2022-08-17T04:48:01.167Z,17.57
2022-08-17T04:50:27.969Z,17.64
2022-08-17T04:52:54.932Z,17.66
2022-08-17T04:55:22.183Z,17.72
2022-08-17T04:57:49.141Z,17.81
2022-08-17T05:00:15.978Z,17.87
2022-08-17T05:02:50.645Z,17.94
2022-08-17T05:05:25.348Z,18.06
2022-08-17T05:07:54.558Z,18.15
2022-08-17T05:10:22.851Z,18.24
2022-08-17T05:12:58.794Z,18.33
2022-08-17T05:15:26.049Z,18.45
2022-08-17T05:17:53.251Z,18.55
2022-08-17T05:20:21.081Z,18.63
2022-08-17T05:22:51.374Z,18.73
2022-08-17T05:25:25.637Z,18.95
2022-08-17T05:27:53.286Z,19.07
2022-08-17T05:30:20.621Z,19.19
2022-08-17T05:33:01.869Z,19.44
2022-08-17T05:35:31.916Z,19.69
2022-08-17T05:38:00.894Z,19.89
2022-08-17T05:40:28.506Z,20.19
2022-08-17T05:43:10.188Z,20.38
2022-08-17T05:45:55.191Z,20.56
2022-08-17T05:48:35.605Z,20.73
2022-08-17T05:51:15.796Z,20.89
2022-08-17T05:53:42.495Z,21.08
2022-08-17T05:56:29.665Z,21.15
2022-08-17T05:59:31.294Z,21.30
2022-08-17T06:02:19.589Z,21.51
2022-08-17T06:05:02.383Z,21.71
2022-08-17T06:07:57.852Z,21.95
2022-08-17T06:10:30.650Z,22.09
2022-08-17T06:13:18.881Z,22.30
2022-08-17T06:16:32.880Z,22.51
2022-08-17T06:19:02.677Z,22.65
2022-08-17T06:21:35.136Z,22.91
2022-08-17T06:24:23.985Z,23.06
2022-08-17T06:26:52.527Z,23.23
2022-08-17T06:29:45.887Z,23.31
2022-08-17T06:32:13.609Z,23.61
2022-08-17T06:34:43.750Z,23.91
2022-08-17T06:37:49.183Z,24.05
2022-08-17T06:40:16.038Z,24.47
2022-08-17T06:43:06.497Z,24.66
2022-08-17T06:45:49.402Z,24.90
2022-08-17T06:48:32.351Z,25.05
2022-08-17T06:51:06.807Z,25.12
2022-08-17T06:53:43.012Z,25.19
2022-08-17T06:56:22.023Z,25.34
2022-08-17T06:58:50.000Z,25.52
2022-08-17T07:01:27.038Z,25.52
2022-08-17T07:04:06.348Z,25.62
2022-08-17T07:06:47.264Z,25.72
2022-08-17T07:09:28.944Z,25.70
2022-08-17T07:12:05.535Z,25.86
2022-08-17T07:14:38.421Z,25.95
2022-08-17T07:17:14.853Z,26.16
2022-08-17T07:19:47.973Z,26.26
2022-08-17T07:22:14.624Z,26.36
2022-08-17T07:24:54.831Z,26.57
2022-08-17T07:27:24.955Z,26.95
2022-08-17T07:30:00.851Z,27.17
2022-08-17T07:32:32.081Z,27.25
2022-08-17T07:35:01.712Z,27.49
2022-08-17T07:37:28.418Z,27.68
2022-08-17T07:40:15.550Z,27.56
2022-08-17T07:42:45.080Z,27.66
2022-08-17T07:45:35.217Z,27.83
2022-08-17T07:48:28.181Z,27.89
2022-08-17T07:50:55.205Z,27.92
2022-08-17T07:53:25.646Z,28.45
2022-08-17T07:55:53.975Z,28.46
2022-08-17T07:58:23.533Z,28.58
2022-08-17T08:01:09.113Z,28.33
2022-08-17T08:03:42.649Z,28.51
2022-08-17T08:06:23.329Z,28.34
2022-08-17T08:08:56.092Z,28.60
2022-08-17T08:11:34.901Z,28.71
2022-08-17T08:14:33.706Z,28.74
2022-08-17T08:17:05.035Z,28.92
2022-08-17T08:19:33.025Z,29.29
2022-08-17T08:22:10.298Z,29.28
2022-08-17T08:24:45.272Z,29.29
2022-08-17T08:27:27.623Z,29.39
2022-08-17T08:30:06.833Z,29.41
2022-08-17T08:32:42.949Z,29.39
2022-08-17T08:35:33.782Z,29.91
2022-08-17T08:38:14.908Z,29.81
2022-08-17T08:40:56.439Z,30.01
2022-08-17T08:43:38.415Z,30.33
2022-08-17T08:46:28.088Z,30.66
2022-08-17T08:50:01.398Z,30.70
2022-08-17T08:52:27.576Z,30.28
2022-08-17T08:55:19.549Z,30.36
2022-08-17T08:57:54.317Z,30.73
2022-08-17T09:00:24.920Z,30.71
2022-08-17T09:03:12.603Z,30.58
2022-08-17T09:05:57.989Z,30.31
2022-08-17T09:08:31.866Z,30.87
2022-08-17T09:11:16.995Z,31.18
2022-08-17T09:14:02.624Z,31.15
2022-08-17T09:16:36.953Z,30.87
2022-08-17T09:19:30.443Z,30.83
2022-08-17T09:22:17.618Z,31.21
2022-08-17T09:24:58.494Z,31.16
2022-08-17T09:27:47.809Z,31.32
2022-08-17T09:30:15.054Z,31.31
2022-08-17T09:32:47.131Z,31.29
2022-08-17T09:35:25.250Z,31.69
2022-08-17T09:38:33.333Z,32.15
2022-08-17T09:41:24.974Z,32.20
2022-08-17T09:44:02.647Z,31.94
2022-08-17T09:47:00.333Z,31.83
2022-08-17T09:50:13.808Z,31.74
2022-08-17T09:52:46.314Z,31.99
2022-08-17T09:57:34.714Z,31.93
2022-08-17T09:59:10.776Z,32.25
2022-08-17T10:02:20.896Z,32.60
2022-08-17T10:05:00.439Z,32.31
2022-08-17T10:08:11.862Z,32.38
2022-08-17T10:10:56.366Z,32.28
2022-08-17T10:14:36.619Z,32.02
2022-08-17T10:17:36.902Z,31.88
2022-08-17T10:20:15.375Z,32.30
2022-08-17T10:23:28.153Z,32.22
2022-08-17T10:26:14.789Z,32.10
2022-08-17T10:28:58.758Z,32.14
2022-08-17T10:31:35.910Z,32.29
2022-08-17T10:35:00.117Z,32.62
2022-08-17T10:38:03.731Z,32.99
2022-08-17T10:40:35.935Z,32.34
2022-08-17T10:43:26.982Z,32.38
2022-08-17T10:46:30.441Z,32.19
2022-08-17T10:49:18.643Z,33.03
2022-08-17T10:51:48.677Z,32.98
2022-08-17T10:54:24.223Z,32.85
2022-08-17T10:56:53.229Z,33.25
2022-08-17T10:59:35.281Z,32.70
2022-08-17T11:02:05.081Z,32.87
2022-08-17T11:05:09.027Z,32.80
2022-08-17T11:07:47.987Z,33.31
2022-08-17T11:10:20.746Z,32.85
2022-08-17T11:12:57.260Z,32.77
2022-08-17T11:15:53.120Z,33.30
2022-08-17T11:18:38.033Z,33.31
2022-08-17T11:21:23.472Z,32.74
2022-08-17T11:24:06.084Z,32.66
2022-08-17T11:26:35.930Z,32.61
2022-08-17T11:29:09.027Z,32.58
2022-08-17T11:31:40.650Z,33.09
2022-08-17T11:34:26.524Z,34.01
2022-08-17T11:36:53.285Z,33.73
2022-08-17T11:39:39.017Z,33.48
2022-08-17T11:42:11.923Z,34.33
2022-08-17T11:44:53.413Z,34.10
2022-08-17T11:48:16.000Z,33.92
2022-08-17T11:51:07.025Z,33.53
2022-08-17T11:54:08.709Z,33.10
2022-08-17T11:56:44.747Z,32.75
2022-08-17T11:59:32.773Z,32.40
2022-08-17T12:02:05.284Z,32.55
2022-08-17T12:04:34.739Z,32.04
2022-08-17T12:07:17.926Z,32.14
2022-08-17T12:09:48.855Z,31.98
2022-08-17T12:12:17.679Z,32.07
2022-08-17T12:15:11.424Z,31.86
2022-08-17T12:17:42.037Z,31.46
2022-08-17T12:20:22.290Z,31.47
2022-08-17T12:22:57.683Z,31.14
2022-08-17T12:25:37.953Z,31.03
2022-08-17T12:28:20.195Z,30.95
2022-08-17T12:30:52.049Z,31.05
2022-08-17T12:33:25.553Z,30.96
2022-08-17T12:36:05.239Z,30.98
2022-08-17T12:38:35.197Z,30.80
2022-08-17T12:41:24.922Z,30.83
2022-08-17T12:44:12.427Z,30.73
2022-08-17T12:46:51.218Z,30.66
2022-08-17T12:49:29.693Z,31.09
2022-08-17T12:52:04.976Z,31.53
2022-08-17T12:55:12.113Z,31.53
2022-08-17T12:57:38.873Z,31.53
2022-08-17T13:00:26.093Z,31.69
2022-08-17T13:02:58.981Z,32.19
2022-08-17T13:05:35.760Z,32.40
2022-08-17T13:08:12.736Z,31.96
2022-08-17T13:10:40.155Z,32.29
2022-08-17T13:13:26.142Z,32.39
2022-08-17T13:16:05.719Z,31.89
2022-08-17T13:18:48.117Z,31.93
2022-08-17T13:21:23.719Z,31.96
2022-08-17T13:24:10.510Z,31.46
2022-08-17T13:26:46.176Z,31.39
2022-08-17T13:29:31.140Z,31.53
2022-08-17T13:32:13.514Z,31.47
2022-08-17T13:35:11.984Z,31.37
2022-08-17T13:37:48.319Z,31.64
2022-08-17T13:40:15.094Z,31.51
2022-08-17T13:42:55.611Z,31.51
2022-08-17T13:45:38.715Z,31.45
2022-08-17T13:48:13.770Z,31.50
2022-08-17T13:51:00.790Z,31.45
2022-08-17T13:53:31.484Z,31.42
2022-08-17T13:56:37.485Z,31.39
2022-08-17T13:59:02.797Z,31.47
2022-08-17T14:01:34.386Z,31.50
2022-08-17T14:04:05.135Z,31.62
2022-08-17T14:06:55.059Z,31.56
2022-08-17T14:09:26.099Z,31.52
2022-08-17T14:11:54.227Z,31.44
2022-08-17T14:14:23.378Z,31.14
2022-08-17T14:16:51.508Z,30.98
2022-08-17T14:19:18.553Z,31.11
2022-08-17T14:21:46.758Z,31.35
2022-08-17T14:24:35.617Z,31.49
2022-08-17T14:27:05.423Z,31.55
2022-08-17T14:29:36.894Z,31.77
2022-08-17T14:32:31.276Z,31.99
2022-08-17T14:34:59.301Z,32.11
2022-08-17T14:37:28.044Z,32.14
2022-08-17T14:39:59.809Z,32.44
2022-08-17T14:42:29.649Z,32.85
2022-08-17T14:44:58.716Z,32.78
2022-08-17T14:47:26.706Z,32.39
2022-08-17T14:49:53.679Z,32.78
2022-08-17T14:52:21.883Z,32.83
2022-08-17T14:54:52.695Z,32.60
2022-08-17T14:57:33.004Z,31.78
2022-08-17T15:00:02.245Z,31.82
2022-08-17T15:02:30.868Z,31.63
2022-08-17T15:05:04.076Z,31.59
2022-08-17T15:07:31.625Z,31.65
2022-08-17T15:10:01.548Z,31.76
2022-08-17T15:12:33.125Z,32.33
2022-08-17T15:15:01.865Z,32.38
2022-08-17T15:17:44.702Z,31.85
2022-08-17T15:20:28.123Z,32.11
2022-08-17T15:22:56.176Z,32.16
2022-08-17T15:25:25.089Z,32.28
2022-08-17T15:27:52.119Z,32.34
2022-08-17T15:30:19.379Z,32.35
2022-08-17T15:32:54.768Z,32.13
2022-08-17T15:35:27.264Z,32.11
2022-08-17T15:37:57.447Z,32.01
2022-08-17T15:40:25.275Z,31.69
2022-08-17T15:42:52.429Z,32.13
2022-08-17T15:45:22.960Z,32.15
2022-08-17T15:47:49.764Z,31.79
2022-08-17T15:50:16.632Z,31.77
2022-08-17T15:52:45.018Z,31.70
2022-08-17T15:55:15.204Z,31.82
2022-08-17T15:57:42.320Z,31.54
2022-08-17T16:00:10.332Z,31.26
2022-08-17T16:03:45.811Z,31.13
2022-08-17T16:05:27.363Z,31.51
2022-08-17T16:07:55.969Z,31.94
2022-08-17T16:10:25.177Z,31.93
2022-08-17T16:13:03.986Z,32.00
2022-08-17T16:15:33.488Z,32.08
2022-08-17T16:18:00.351Z,32.07
2022-08-17T16:20:27.456Z,32.10
2022-08-17T16:22:55.169Z,31.75
2022-08-17T16:25:52.461Z,31.16
2022-08-17T16:28:16.878Z,30.78
2022-08-17T16:30:44.131Z,30.56
2022-08-17T16:33:11.724Z,30.40
2022-08-17T16:35:39.093Z,30.15
2022-08-17T16:38:07.276Z,29.96
2022-08-17T16:40:35.720Z,29.75
2022-08-17T16:43:03.847Z,29.61
2022-08-17T16:45:36.816Z,29.43
2022-08-17T16:48:04.529Z,29.38
2022-08-17T16:50:32.299Z,29.22
2022-08-17T16:53:11.480Z,29.16
2022-08-17T16:55:39.005Z,29.13
2022-08-17T16:58:06.405Z,29.03
2022-08-17T17:00:34.083Z,28.95
2022-08-17T17:03:18.136Z,28.83
2022-08-17T17:05:57.719Z,28.78
2022-08-17T17:08:30.391Z,28.64
2022-08-17T17:10:59.492Z,28.53
2022-08-17T17:13:36.070Z,28.42
2022-08-17T17:16:26.401Z,28.39
2022-08-17T17:19:45.609Z,28.28
2022-08-17T17:22:16.946Z,28.15
2022-08-17T17:25:15.645Z,28.05
2022-08-17T17:28:19.415Z,27.90
2022-08-17T17:31:03.405Z,27.67
2022-08-17T17:33:40.403Z,27.65
2022-08-17T17:36:21.029Z,27.57
2022-08-17T17:38:53.200Z,27.44
2022-08-17T17:41:47.213Z,27.34
2022-08-17T17:44:19.756Z,27.25
2022-08-17T17:46:53.355Z,27.14
2022-08-17T17:49:20.565Z,27.01
2022-08-17T17:52:10.229Z,26.94
2022-08-17T17:54:47.249Z,26.81
2022-08-17T17:57:38.481Z,26.69
2022-08-17T18:00:21.857Z,26.53
2022-08-17T18:03:06.926Z,26.44
2022-08-17T18:05:53.914Z,26.32
2022-08-17T18:08:34.140Z,26.17
2022-08-17T18:11:41.439Z,26.01
2022-08-17T18:14:40.231Z,25.84
2022-08-17T18:17:07.158Z,25.70
2022-08-17T18:19:33.966Z,25.54
2022-08-17T18:22:15.177Z,25.45
2022-08-17T18:24:44.726Z,25.34
2022-08-17T18:27:25.923Z,25.17
2022-08-17T18:29:56.398Z,25.09
2022-08-17T18:32:31.574Z,24.97
2022-08-17T18:35:02.074Z,24.91
2022-08-17T18:37:37.084Z,24.80
2022-08-17T18:40:21.429Z,24.70
2022-08-17T18:43:10.080Z,24.55
2022-08-17T18:45:43.004Z,24.48
2022-08-17T18:48:36.650Z,24.38
2022-08-17T18:51:40.629Z,24.21
2022-08-17T18:54:24.838Z,24.13
2022-08-17T18:56:55.529Z,24.06
2022-08-17T18:59:38.265Z,24.03
2022-08-17T19:02:34.530Z,23.93
2022-08-17T19:05:25.561Z,23.81
2022-08-17T19:07:52.693Z,23.74
2022-08-17T19:10:22.413Z,23.68
2022-08-17T19:12:52.563Z,23.61
2022-08-17T19:15:44.096Z,23.49
2022-08-17T19:18:19.241Z,23.39
2022-08-17T19:20:53.347Z,23.31
2022-08-17T19:23:54.249Z,23.28
2022-08-17T19:26:51.359Z,23.25
2022-08-17T19:29:44.123Z,23.17
2022-08-17T19:32:22.353Z,23.09
2022-08-17T19:34:49.366Z,23.07
2022-08-17T19:37:40.360Z,23.04
2022-08-17T19:40:09.859Z,22.94
2022-08-17T19:42:47.446Z,22.87
2022-08-17T19:45:51.858Z,22.82
2022-08-17T19:48:50.274Z,22.78
2022-08-17T19:51:26.515Z,22.72
2022-08-17T19:54:21.289Z,22.73
2022-08-17T19:56:55.562Z,22.68
2022-08-17T19:59:51.470Z,22.66
2022-08-17T20:02:27.538Z,22.63
2022-08-17T20:05:00.589Z,22.59
2022-08-17T20:07:38.667Z,22.51
2022-08-17T20:10:13.529Z,22.47
2022-08-17T20:12:44.623Z,22.49
2022-08-17T20:15:25.493Z,22.41
2022-08-17T20:17:53.115Z,22.33
2022-08-17T20:20:24.024Z,22.31
2022-08-17T20:23:06.814Z,22.33
2022-08-17T20:25:47.497Z,22.31
2022-08-17T20:28:24.068Z,22.26
2022-08-17T20:30:52.099Z,22.22
2022-08-17T20:33:33.708Z,22.20
2022-08-17T20:36:22.779Z,22.18
2022-08-17T20:38:52.045Z,22.18
2022-08-17T20:41:24.074Z,22.16
2022-08-17T20:44:03.885Z,22.12
2022-08-17T20:46:36.538Z,22.14
2022-08-17T20:49:27.184Z,22.18
2022-08-17T20:52:02.844Z,22.16
2022-08-17T20:54:48.623Z,22.22
2022-08-17T20:57:36.729Z,22.27
2022-08-17T21:00:16.515Z,22.28
2022-08-17T21:02:49.875Z,22.32
2022-08-17T21:05:32.457Z,22.35
2022-08-17T21:08:16.623Z,22.29
2022-08-17T21:10:47.101Z,22.22
2022-08-17T21:13:15.755Z,22.24
2022-08-17T21:16:07.225Z,22.20
2022-08-17T21:18:38.965Z,22.13
2022-08-17T21:21:20.507Z,22.17
2022-08-17T21:23:53.214Z,22.17
2022-08-17T21:26:50.727Z,22.16
2022-08-17T21:29:30.994Z,22.15
2022-08-17T21:31:59.703Z,22.16
2022-08-17T21:34:36.423Z,22.17
2022-08-17T21:37:22.383Z,22.16
2022-08-17T21:40:02.323Z,22.14
2022-08-17T21:42:32.178Z,22.10
2022-08-17T21:45:10.201Z,22.06
2022-08-17T21:47:43.714Z,22.08
2022-08-17T21:50:24.427Z,21.99
2022-08-17T21:52:54.774Z,22.03
2022-08-17T21:55:28.361Z,21.96
2022-08-17T21:58:14.769Z,21.96
2022-08-17T22:00:44.730Z,21.90
2022-08-17T22:03:25.983Z,21.92
2022-08-17T22:05:52.793Z,21.88
2022-08-17T22:08:23.202Z,21.89
2022-08-17T22:10:59.785Z,21.98
2022-08-17T22:13:29.413Z,21.99
2022-08-17T22:16:29.524Z,22.03
2022-08-17T22:18:58.999Z,21.99
2022-08-17T22:21:26.204Z,21.97
2022-08-17T22:24:05.219Z,21.90
2022-08-17T22:27:02.406Z,21.91
2022-08-17T22:29:57.616Z,22.10
2022-08-17T22:32:43.935Z,22.14
2022-08-17T22:35:55.689Z,22.23
2022-08-17T22:38:26.758Z,22.24
2022-08-17T22:40:56.542Z,22.24
2022-08-17T22:43:28.622Z,22.28
2022-08-17T22:45:59.904Z,22.27
2022-08-17T22:48:29.704Z,22.44
2022-08-17T22:51:13.962Z,22.49
2022-08-17T22:54:14.825Z,22.51
2022-08-17T22:57:20.820Z,22.64
2022-08-17T22:59:52.093Z,22.65
2022-08-17T23:02:25.978Z,22.63
2022-08-17T23:04:59.318Z,22.59
2022-08-17T23:07:26.086Z,22.71
2022-08-17T23:09:53.276Z,22.78
2022-08-17T23:12:26.528Z,22.89
2022-08-17T23:15:00.649Z,22.88
2022-08-17T23:17:36.939Z,22.88
2022-08-17T23:20:08.552Z,22.87
2022-08-17T23:22:37.995Z,22.80
2022-08-17T23:25:26.852Z,22.73
2022-08-17T23:27:54.777Z,22.63
2022-08-17T23:30:24.966Z,22.60
2022-08-17T23:32:54.079Z,22.54
2022-08-17T23:35:40.523Z,22.49
2022-08-17T23:38:11.725Z,22.40
2022-08-17T23:40:39.746Z,22.43
2022-08-17T23:43:23.665Z,22.48
2022-08-17T23:45:54.215Z,22.40
2022-08-17T23:48:32.465Z,22.41
2022-08-17T23:51:14.671Z,22.45
2022-08-17T23:53:47.354Z,22.35
2022-08-17T23:56:15.330Z,22.47
2022-08-17T23:58:43.572Z,22.40
